sensor_id;sensor_type;location;lat;lon;timestamp;P1;durP1;ratioP1;P2;durP2;ratioP2
58685;SDS011;44465;53.206;-6.106;2022-07-26T00:04:25;2.40;;;0.75;;
58685;SDS011;44465;53.206;-6.106;2022-07-26T00:06:51;0.68;;;0.50;;
58685;SDS011;44465;53.206;-6.106;2022-07-26T00:09:17;1.42;;;0.88;;
58685;SDS011;44465;53.206;-6.106;2022-07-26T00:11:42;3.28;;;0.80;;
58685;SDS011;44465;53.206;-6.106;2022-07-26T00:14:08;2.10;;;0.70;;
58685;SDS011;44465;53.206;-6.106;2022-07-26T00:16:34;2.05;;;1.02;;
58685;SDS011;44465;53.206;-6.106;2022-07-26T00:19:01;2.53;;;1.10;;
58685;SDS011;44465;53.206;-6.106;2022-07-26T00:21:27;1.35;;;1.05;;
58685;SDS011;44465;53.206;-6.106;2022-07-26T00:23:54;3.27;;;1.13;;
58685;SDS011;44465;53.206;-6.106;2022-07-26T00:26:19;1.42;;;0.77;;
58685;SDS011;44465;53.206;-6.106;2022-07-26T00:28:45;2.72;;;0.82;;
58685;SDS011;44465;53.206;-6.106;2022-07-26T00:31:10;2.63;;;0.88;;
58685;SDS011;44465;53.206;-6.106;2022-07-26T00:33:36;3.40;;;0.95;;
58685;SDS011;44465;53.206;-6.106;2022-07-26T00:36:02;1.60;;;0.50;;
58685;SDS011;44465;53.206;-6.106;2022-07-26T00:38:28;1.25;;;0.70;;
58685;SDS011;44465;53.206;-6.106;2022-07-26T00:40:53;2.05;;;1.00;;
58685;SDS011;44465;53.206;-6.106;2022-07-26T00:43:19;2.50;;;0.85;;
58685;SDS011;44465;53.206;-6.106;2022-07-26T00:45:44;1.90;;;0.70;;
58685;SDS011;44465;53.206;-6.106;2022-07-26T00:48:10;2.35;;;0.88;;
58685;SDS011;44465;53.206;-6.106;2022-07-26T00:50:35;0.85;;;0.80;;
58685;SDS011;44465;53.206;-6.106;2022-07-26T00:53:01;2.30;;;0.77;;
58685;SDS011;44465;53.206;-6.106;2022-07-26T00:55:26;1.20;;;0.82;;
58685;SDS011;44465;53.206;-6.106;2022-07-26T00:57:52;2.42;;;0.70;;
58685;SDS011;44465;53.206;-6.106;2022-07-26T01:00:19;1.35;;;0.73;;
58685;SDS011;44465;53.206;-6.106;2022-07-26T01:02:47;1.27;;;0.80;;
58685;SDS011;44465;53.206;-6.106;2022-07-26T01:05:14;0.90;;;0.70;;
58685;SDS011;44465;53.206;-6.106;2022-07-26T01:07:40;1.15;;;0.60;;
58685;SDS011;44465;53.206;-6.106;2022-07-26T01:10:07;3.35;;;0.90;;
58685;SDS011;44465;53.206;-6.106;2022-07-26T01:12:40;1.23;;;0.60;;
58685;SDS011;44465;53.206;-6.106;2022-07-26T01:15:06;1.17;;;0.70;;
58685;SDS011;44465;53.206;-6.106;2022-07-26T01:17:34;3.30;;;1.15;;
58685;SDS011;44465;53.206;-6.106;2022-07-26T01:19:59;2.53;;;0.63;;
58685;SDS011;44465;53.206;-6.106;2022-07-26T01:22:25;2.13;;;0.80;;
58685;SDS011;44465;53.206;-6.106;2022-07-26T01:24:51;1.70;;;0.60;;
58685;SDS011;44465;53.206;-6.106;2022-07-26T01:27:16;0.82;;;0.63;;
58685;SDS011;44465;53.206;-6.106;2022-07-26T01:29:41;0.88;;;0.60;;
58685;SDS011;44465;53.206;-6.106;2022-07-26T01:32:07;1.42;;;0.90;;
58685;SDS011;44465;53.206;-6.106;2022-07-26T01:34:33;2.03;;;0.95;;
58685;SDS011;44465;53.206;-6.106;2022-07-26T01:36:58;1.10;;;0.60;;
58685;SDS011;44465;53.206;-6.106;2022-07-26T01:39:24;1.63;;;0.70;;
58685;SDS011;44465;53.206;-6.106;2022-07-26T01:41:49;1.45;;;1.05;;
58685;SDS011;44465;53.206;-6.106;2022-07-26T01:44:15;1.35;;;0.82;;
58685;SDS011;44465;53.206;-6.106;2022-07-26T01:46:40;2.78;;;0.60;;
58685;SDS011;44465;53.206;-6.106;2022-07-26T01:49:06;0.63;;;0.63;;
58685;SDS011;44465;53.206;-6.106;2022-07-26T01:51:32;1.88;;;0.55;;
58685;SDS011;44465;53.206;-6.106;2022-07-26T01:53:59;3.20;;;0.73;;
58685;SDS011;44465;53.206;-6.106;2022-07-26T01:56:24;0.75;;;0.70;;
58685;SDS011;44465;53.206;-6.106;2022-07-26T01:58:50;1.08;;;0.90;;
58685;SDS011;44465;53.206;-6.106;2022-07-26T02:01:15;2.75;;;0.80;;
58685;SDS011;44465;53.206;-6.106;2022-07-26T02:03:41;0.77;;;0.50;;
58685;SDS011;44465;53.206;-6.106;2022-07-26T02:06:07;0.95;;;0.65;;
58685;SDS011;44465;53.206;-6.106;2022-07-26T02:08:32;0.57;;;0.50;;
58685;SDS011;44465;53.206;-6.106;2022-07-26T02:10:58;1.27;;;0.82;;
58685;SDS011;44465;53.206;-6.106;2022-07-26T02:13:31;1.08;;;0.80;;
58685;SDS011;44465;53.206;-6.106;2022-07-26T02:15:58;0.88;;;0.55;;
58685;SDS011;44465;53.206;-6.106;2022-07-26T02:18:25;0.98;;;0.50;;
58685;SDS011;44465;53.206;-6.106;2022-07-26T02:20:51;0.85;;;0.68;;
58685;SDS011;44465;53.206;-6.106;2022-07-26T02:23:17;1.25;;;0.60;;
58685;SDS011;44465;53.206;-6.106;2022-07-26T02:25:43;0.50;;;0.50;;
58685;SDS011;44465;53.206;-6.106;2022-07-26T02:28:09;1.38;;;0.50;;
58685;SDS011;44465;53.206;-6.106;2022-07-26T02:30:34;1.77;;;0.47;;
58685;SDS011;44465;53.206;-6.106;2022-07-26T02:33:00;0.90;;;0.50;;
58685;SDS011;44465;53.206;-6.106;2022-07-26T02:35:25;0.70;;;0.55;;
58685;SDS011;44465;53.206;-6.106;2022-07-26T02:37:51;0.52;;;0.52;;
58685;SDS011;44465;53.206;-6.106;2022-07-26T02:40:16;0.88;;;0.60;;
58685;SDS011;44465;53.206;-6.106;2022-07-26T02:42:42;0.70;;;0.70;;
58685;SDS011;44465;53.206;-6.106;2022-07-26T02:45:07;0.63;;;0.60;;
58685;SDS011;44465;53.206;-6.106;2022-07-26T02:47:34;1.70;;;0.82;;
58685;SDS011;44465;53.206;-6.106;2022-07-26T02:49:59;1.05;;;0.60;;
58685;SDS011;44465;53.206;-6.106;2022-07-26T02:52:25;2.15;;;0.68;;
58685;SDS011;44465;53.206;-6.106;2022-07-26T02:54:50;0.68;;;0.50;;
58685;SDS011;44465;53.206;-6.106;2022-07-26T02:57:16;1.23;;;0.63;;
58685;SDS011;44465;53.206;-6.106;2022-07-26T02:59:41;0.93;;;0.70;;
58685;SDS011;44465;53.206;-6.106;2022-07-26T03:02:07;0.70;;;0.60;;
58685;SDS011;44465;53.206;-6.106;2022-07-26T03:04:33;0.80;;;0.40;;
58685;SDS011;44465;53.206;-6.106;2022-07-26T03:06:58;2.08;;;0.52;;
58685;SDS011;44465;53.206;-6.106;2022-07-26T03:09:24;1.27;;;0.60;;
58685;SDS011;44465;53.206;-6.106;2022-07-26T03:11:49;0.90;;;0.60;;
58685;SDS011;44465;53.206;-6.106;2022-07-26T03:14:15;0.50;;;0.50;;
58685;SDS011;44465;53.206;-6.106;2022-07-26T03:16:41;1.83;;;0.43;;
58685;SDS011;44465;53.206;-6.106;2022-07-26T03:19:06;2.28;;;0.63;;
58685;SDS011;44465;53.206;-6.106;2022-07-26T03:21:32;0.40;;;0.40;;
58685;SDS011;44465;53.206;-6.106;2022-07-26T03:23:57;0.70;;;0.50;;
58685;SDS011;44465;53.206;-6.106;2022-07-26T03:26:22;1.45;;;0.60;;
58685;SDS011;44465;53.206;-6.106;2022-07-26T03:28:48;0.47;;;0.40;;
58685;SDS011;44465;53.206;-6.106;2022-07-26T03:31:13;0.70;;;0.50;;
58685;SDS011;44465;53.206;-6.106;2022-07-26T03:33:39;0.50;;;0.50;;
58685;SDS011;44465;53.206;-6.106;2022-07-26T03:36:05;0.77;;;0.43;;
58685;SDS011;44465;53.206;-6.106;2022-07-26T03:38:31;0.60;;;0.50;;
58685;SDS011;44465;53.206;-6.106;2022-07-26T03:40:57;0.50;;;0.50;;
58685;SDS011;44465;53.206;-6.106;2022-07-26T03:43:23;0.50;;;0.50;;
58685;SDS011;44465;53.206;-6.106;2022-07-26T03:45:48;1.48;;;0.50;;
58685;SDS011;44465;53.206;-6.106;2022-07-26T03:48:14;2.28;;;0.40;;
58685;SDS011;44465;53.206;-6.106;2022-07-26T03:50:39;1.77;;;0.60;;
58685;SDS011;44465;53.206;-6.106;2022-07-26T03:53:05;2.35;;;0.50;;
58685;SDS011;44465;53.206;-6.106;2022-07-26T03:55:31;1.48;;;0.43;;
58685;SDS011;44465;53.206;-6.106;2022-07-26T03:58:15;0.80;;;0.60;;
58685;SDS011;44465;53.206;-6.106;2022-07-26T04:00:41;0.90;;;0.60;;
58685;SDS011;44465;53.206;-6.106;2022-07-26T04:03:06;1.85;;;0.50;;
58685;SDS011;44465;53.206;-6.106;2022-07-26T04:05:32;1.10;;;0.47;;
58685;SDS011;44465;53.206;-6.106;2022-07-26T04:07:57;0.50;;;0.50;;
58685;SDS011;44465;53.206;-6.106;2022-07-26T04:10:22;0.47;;;0.40;;
58685;SDS011;44465;53.206;-6.106;2022-07-26T04:12:49;1.10;;;0.47;;
58685;SDS011;44465;53.206;-6.106;2022-07-26T04:15:14;1.63;;;0.70;;
58685;SDS011;44465;53.206;-6.106;2022-07-26T04:17:41;0.30;;;0.30;;
58685;SDS011;44465;53.206;-6.106;2022-07-26T04:20:08;1.48;;;0.50;;
58685;SDS011;44465;53.206;-6.106;2022-07-26T04:22:35;2.60;;;0.60;;
58685;SDS011;44465;53.206;-6.106;2022-07-26T04:25:02;1.20;;;0.77;;
58685;SDS011;44465;53.206;-6.106;2022-07-26T04:29:54;1.00;;;0.52;;
58685;SDS011;44465;53.206;-6.106;2022-07-26T04:32:20;0.45;;;0.45;;
58685;SDS011;44465;53.206;-6.106;2022-07-26T04:34:45;1.38;;;0.43;;
58685;SDS011;44465;53.206;-6.106;2022-07-26T04:37:11;0.82;;;0.40;;
58685;SDS011;44465;53.206;-6.106;2022-07-26T04:39:36;0.45;;;0.40;;
58685;SDS011;44465;53.206;-6.106;2022-07-26T04:42:02;0.63;;;0.47;;
58685;SDS011;44465;53.206;-6.106;2022-07-26T04:44:27;1.38;;;0.50;;
58685;SDS011;44465;53.206;-6.106;2022-07-26T04:46:53;1.73;;;0.50;;
58685;SDS011;44465;53.206;-6.106;2022-07-26T04:49:18;1.30;;;0.40;;
58685;SDS011;44465;53.206;-6.106;2022-07-26T04:51:44;1.55;;;0.40;;
58685;SDS011;44465;53.206;-6.106;2022-07-26T04:54:09;0.50;;;0.45;;
58685;SDS011;44465;53.206;-6.106;2022-07-26T04:56:35;0.63;;;0.30;;
58685;SDS011;44465;53.206;-6.106;2022-07-26T04:59:00;1.10;;;0.52;;
58685;SDS011;44465;53.206;-6.106;2022-07-26T05:01:26;0.80;;;0.80;;
58685;SDS011;44465;53.206;-6.106;2022-07-26T05:03:51;0.40;;;0.40;;
58685;SDS011;44465;53.206;-6.106;2022-07-26T05:06:16;0.75;;;0.63;;
58685;SDS011;44465;53.206;-6.106;2022-07-26T05:08:42;0.50;;;0.45;;
58685;SDS011;44465;53.206;-6.106;2022-07-26T05:11:08;0.57;;;0.57;;
58685;SDS011;44465;53.206;-6.106;2022-07-26T05:13:34;0.50;;;0.50;;
58685;SDS011;44465;53.206;-6.106;2022-07-26T05:15:59;0.85;;;0.50;;
58685;SDS011;44465;53.206;-6.106;2022-07-26T05:18:25;0.60;;;0.40;;
58685;SDS011;44465;53.206;-6.106;2022-07-26T05:20:50;0.90;;;0.52;;
58685;SDS011;44465;53.206;-6.106;2022-07-26T05:23:16;1.02;;;0.55;;
58685;SDS011;44465;53.206;-6.106;2022-07-26T05:25:42;0.45;;;0.45;;
58685;SDS011;44465;53.206;-6.106;2022-07-26T05:28:07;0.88;;;0.60;;
58685;SDS011;44465;53.206;-6.106;2022-07-26T05:30:33;1.63;;;0.50;;
58685;SDS011;44465;53.206;-6.106;2022-07-26T05:32:58;0.40;;;0.40;;
58685;SDS011;44465;53.206;-6.106;2022-07-26T05:35:24;0.45;;;0.45;;
58685;SDS011;44465;53.206;-6.106;2022-07-26T05:37:49;0.70;;;0.50;;
58685;SDS011;44465;53.206;-6.106;2022-07-26T05:40:15;1.70;;;0.50;;
58685;SDS011;44465;53.206;-6.106;2022-07-26T05:42:40;1.00;;;0.50;;
58685;SDS011;44465;53.206;-6.106;2022-07-26T05:45:06;0.45;;;0.43;;
58685;SDS011;44465;53.206;-6.106;2022-07-26T05:47:32;0.52;;;0.40;;
58685;SDS011;44465;53.206;-6.106;2022-07-26T05:49:58;1.30;;;0.57;;
58685;SDS011;44465;53.206;-6.106;2022-07-26T05:52:23;0.90;;;0.50;;
58685;SDS011;44465;53.206;-6.106;2022-07-26T05:54:49;0.55;;;0.52;;
58685;SDS011;44465;53.206;-6.106;2022-07-26T05:57:15;0.50;;;0.50;;
58685;SDS011;44465;53.206;-6.106;2022-07-26T05:59:40;0.45;;;0.45;;
58685;SDS011;44465;53.206;-6.106;2022-07-26T06:02:06;1.45;;;0.52;;
58685;SDS011;44465;53.206;-6.106;2022-07-26T06:04:32;0.75;;;0.40;;
58685;SDS011;44465;53.206;-6.106;2022-07-26T06:06:58;0.50;;;0.50;;
58685;SDS011;44465;53.206;-6.106;2022-07-26T06:09:23;0.45;;;0.45;;
58685;SDS011;44465;53.206;-6.106;2022-07-26T06:11:49;1.45;;;0.70;;
58685;SDS011;44465;53.206;-6.106;2022-07-26T06:14:15;0.68;;;0.60;;
58685;SDS011;44465;53.206;-6.106;2022-07-26T06:16:40;0.68;;;0.50;;
58685;SDS011;44465;53.206;-6.106;2022-07-26T06:19:06;0.45;;;0.40;;
58685;SDS011;44465;53.206;-6.106;2022-07-26T06:21:31;1.17;;;0.60;;
58685;SDS011;44465;53.206;-6.106;2022-07-26T06:23:56;1.40;;;0.90;;
58685;SDS011;44465;53.206;-6.106;2022-07-26T06:26:22;0.68;;;0.68;;
58685;SDS011;44465;53.206;-6.106;2022-07-26T06:29:03;0.75;;;0.30;;
58685;SDS011;44465;53.206;-6.106;2022-07-26T06:31:28;1.13;;;0.40;;
58685;SDS011;44465;53.206;-6.106;2022-07-26T06:33:54;0.55;;;0.47;;
58685;SDS011;44465;53.206;-6.106;2022-07-26T06:36:19;0.65;;;0.40;;
58685;SDS011;44465;53.206;-6.106;2022-07-26T06:38:45;0.75;;;0.52;;
58685;SDS011;44465;53.206;-6.106;2022-07-26T06:41:10;0.35;;;0.35;;
58685;SDS011;44465;53.206;-6.106;2022-07-26T06:43:35;1.10;;;0.70;;
58685;SDS011;44465;53.206;-6.106;2022-07-26T06:46:01;0.90;;;0.45;;
58685;SDS011;44465;53.206;-6.106;2022-07-26T06:48:26;0.80;;;0.60;;
58685;SDS011;44465;53.206;-6.106;2022-07-26T06:50:52;0.43;;;0.43;;
58685;SDS011;44465;53.206;-6.106;2022-07-26T06:53:17;0.38;;;0.35;;
58685;SDS011;44465;53.206;-6.106;2022-07-26T06:55:43;1.67;;;0.70;;
58685;SDS011;44465;53.206;-6.106;2022-07-26T06:58:08;0.40;;;0.40;;
58685;SDS011;44465;53.206;-6.106;2022-07-26T07:00:34;1.30;;;0.50;;
58685;SDS011;44465;53.206;-6.106;2022-07-26T07:02:59;0.93;;;0.47;;
58685;SDS011;44465;53.206;-6.106;2022-07-26T07:05:25;0.85;;;0.50;;
58685;SDS011;44465;53.206;-6.106;2022-07-26T07:07:50;7.07;;;0.65;;
58685;SDS011;44465;53.206;-6.106;2022-07-26T07:10:16;0.50;;;0.50;;
58685;SDS011;44465;53.206;-6.106;2022-07-26T07:12:41;0.52;;;0.50;;
58685;SDS011;44465;53.206;-6.106;2022-07-26T07:15:09;0.88;;;0.50;;
58685;SDS011;44465;53.206;-6.106;2022-07-26T07:17:35;0.50;;;0.50;;
58685;SDS011;44465;53.206;-6.106;2022-07-26T07:20:01;0.60;;;0.60;;
58685;SDS011;44465;53.206;-6.106;2022-07-26T07:24:53;0.82;;;0.77;;
58685;SDS011;44465;53.206;-6.106;2022-07-26T07:27:19;1.15;;;0.40;;
58685;SDS011;44465;53.206;-6.106;2022-07-26T07:29:44;2.92;;;0.57;;
58685;SDS011;44465;53.206;-6.106;2022-07-26T07:32:10;1.15;;;0.47;;
58685;SDS011;44465;53.206;-6.106;2022-07-26T07:34:35;0.65;;;0.50;;
58685;SDS011;44465;53.206;-6.106;2022-07-26T07:37:01;1.00;;;0.47;;
58685;SDS011;44465;53.206;-6.106;2022-07-26T07:39:26;1.35;;;0.60;;
58685;SDS011;44465;53.206;-6.106;2022-07-26T07:41:52;0.52;;;0.52;;
58685;SDS011;44465;53.206;-6.106;2022-07-26T07:44:17;0.55;;;0.50;;
58685;SDS011;44465;53.206;-6.106;2022-07-26T07:46:43;1.13;;;0.40;;
58685;SDS011;44465;53.206;-6.106;2022-07-26T07:49:08;0.30;;;0.30;;
58685;SDS011;44465;53.206;-6.106;2022-07-26T07:51:34;0.65;;;0.65;;
58685;SDS011;44465;53.206;-6.106;2022-07-26T07:54:00;0.30;;;0.30;;
58685;SDS011;44465;53.206;-6.106;2022-07-26T07:56:25;0.63;;;0.50;;
58685;SDS011;44465;53.206;-6.106;2022-07-26T07:58:51;1.60;;;0.45;;
58685;SDS011;44465;53.206;-6.106;2022-07-26T08:01:16;1.90;;;0.88;;
58685;SDS011;44465;53.206;-6.106;2022-07-26T08:03:42;0.98;;;0.52;;
58685;SDS011;44465;53.206;-6.106;2022-07-26T08:06:08;0.52;;;0.52;;
58685;SDS011;44465;53.206;-6.106;2022-07-26T08:08:34;0.55;;;0.47;;
58685;SDS011;44465;53.206;-6.106;2022-07-26T08:11:01;0.70;;;0.50;;
58685;SDS011;44465;53.206;-6.106;2022-07-26T08:13:27;0.57;;;0.50;;
58685;SDS011;44465;53.206;-6.106;2022-07-26T08:15:53;5.05;;;1.00;;
58685;SDS011;44465;53.206;-6.106;2022-07-26T08:18:19;1.80;;;0.75;;
58685;SDS011;44465;53.206;-6.106;2022-07-26T08:20:46;4.30;;;0.80;;
58685;SDS011;44465;53.206;-6.106;2022-07-26T08:23:12;5.63;;;0.90;;
58685;SDS011;44465;53.206;-6.106;2022-07-26T08:25:37;3.85;;;0.77;;
58685;SDS011;44465;53.206;-6.106;2022-07-26T08:28:03;4.28;;;1.08;;
58685;SDS011;44465;53.206;-6.106;2022-07-26T08:30:29;1.40;;;0.70;;
58685;SDS011;44465;53.206;-6.106;2022-07-26T08:32:55;22.97;;;2.70;;
58685;SDS011;44465;53.206;-6.106;2022-07-26T08:35:21;5.50;;;1.10;;
58685;SDS011;44465;53.206;-6.106;2022-07-26T08:37:46;4.18;;;0.82;;
58685;SDS011;44465;53.206;-6.106;2022-07-26T08:40:12;3.42;;;0.90;;
58685;SDS011;44465;53.206;-6.106;2022-07-26T08:42:38;6.00;;;1.38;;
58685;SDS011;44465;53.206;-6.106;2022-07-26T08:45:04;0.85;;;0.50;;
58685;SDS011;44465;53.206;-6.106;2022-07-26T08:47:30;2.42;;;0.90;;
58685;SDS011;44465;53.206;-6.106;2022-07-26T08:49:55;0.90;;;0.65;;
58685;SDS011;44465;53.206;-6.106;2022-07-26T08:52:21;3.13;;;1.02;;
58685;SDS011;44465;53.206;-6.106;2022-07-26T08:54:50;5.30;;;1.42;;
58685;SDS011;44465;53.206;-6.106;2022-07-26T08:57:16;11.40;;;1.30;;
58685;SDS011;44465;53.206;-6.106;2022-07-26T08:59:42;9.13;;;1.65;;
58685;SDS011;44465;53.206;-6.106;2022-07-26T09:02:09;9.48;;;1.30;;
58685;SDS011;44465;53.206;-6.106;2022-07-26T09:07:06;13.48;;;1.75;;
58685;SDS011;44465;53.206;-6.106;2022-07-26T09:12:23;18.95;;;1.92;;
58685;SDS011;44465;53.206;-6.106;2022-07-26T09:14:50;16.77;;;2.80;;
58685;SDS011;44465;53.206;-6.106;2022-07-26T09:17:16;9.10;;;2.33;;
58685;SDS011;44465;53.206;-6.106;2022-07-26T09:19:44;25.45;;;10.00;;
58685;SDS011;44465;53.206;-6.106;2022-07-26T09:22:11;17.27;;;6.80;;
58685;SDS011;44465;53.206;-6.106;2022-07-26T09:24:43;27.75;;;11.05;;
58685;SDS011;44465;53.206;-6.106;2022-07-26T09:27:13;36.30;;;12.35;;
58685;SDS011;44465;53.206;-6.106;2022-07-26T09:29:43;48.60;;;16.02;;
58685;SDS011;44465;53.206;-6.106;2022-07-26T09:32:21;42.33;;;16.35;;
58685;SDS011;44465;53.206;-6.106;2022-07-26T09:34:51;39.17;;;14.85;;
58685;SDS011;44465;53.206;-6.106;2022-07-26T09:37:35;44.75;;;14.02;;
58685;SDS011;44465;53.206;-6.106;2022-07-26T09:40:05;31.45;;;11.10;;
58685;SDS011;44465;53.206;-6.106;2022-07-26T09:42:33;26.95;;;10.38;;
58685;SDS011;44465;53.206;-6.106;2022-07-26T09:44:59;25.17;;;9.88;;
58685;SDS011;44465;53.206;-6.106;2022-07-26T09:47:34;27.50;;;9.85;;
58685;SDS011;44465;53.206;-6.106;2022-07-26T09:53:04;22.33;;;8.20;;
58685;SDS011;44465;53.206;-6.106;2022-07-26T09:55:32;23.60;;;7.43;;
58685;SDS011;44465;53.206;-6.106;2022-07-26T09:58:02;22.92;;;8.05;;
58685;SDS011;44465;53.206;-6.106;2022-07-26T10:00:32;19.48;;;6.75;;
58685;SDS011;44465;53.206;-6.106;2022-07-26T10:02:58;17.70;;;5.85;;
58685;SDS011;44465;53.206;-6.106;2022-07-26T10:05:24;18.02;;;6.43;;
58685;SDS011;44465;53.206;-6.106;2022-07-26T10:07:50;22.15;;;5.85;;
58685;SDS011;44465;53.206;-6.106;2022-07-26T10:10:18;27.42;;;5.97;;
58685;SDS011;44465;53.206;-6.106;2022-07-26T10:12:48;19.25;;;5.78;;
58685;SDS011;44465;53.206;-6.106;2022-07-26T10:15:35;17.73;;;5.72;;
58685;SDS011;44465;53.206;-6.106;2022-07-26T10:18:04;20.77;;;5.57;;
58685;SDS011;44465;53.206;-6.106;2022-07-26T10:23:16;12.45;;;4.40;;
58685;SDS011;44465;53.206;-6.106;2022-07-26T10:25:59;13.45;;;4.80;;
58685;SDS011;44465;53.206;-6.106;2022-07-26T10:28:27;10.35;;;3.80;;
58685;SDS011;44465;53.206;-6.106;2022-07-26T10:31:27;11.32;;;3.95;;
58685;SDS011;44465;53.206;-6.106;2022-07-26T10:33:50;10.98;;;3.78;;
58685;SDS011;44465;53.206;-6.106;2022-07-26T10:36:21;13.82;;;4.13;;
58685;SDS011;44465;53.206;-6.106;2022-07-26T10:39:05;9.85;;;4.15;;
58685;SDS011;44465;53.206;-6.106;2022-07-26T10:41:37;14.52;;;3.95;;
58685;SDS011;44465;53.206;-6.106;2022-07-26T10:49:38;14.35;;;4.47;;
58685;SDS011;44465;53.206;-6.106;2022-07-26T10:57:21;15.80;;;3.58;;
58685;SDS011;44465;53.206;-6.106;2022-07-26T10:59:53;13.05;;;3.40;;
58685;SDS011;44465;53.206;-6.106;2022-07-26T11:02:24;12.50;;;2.90;;
58685;SDS011;44465;53.206;-6.106;2022-07-26T11:07:29;11.05;;;2.97;;
58685;SDS011;44465;53.206;-6.106;2022-07-26T11:09:55;14.45;;;3.17;;
58685;SDS011;44465;53.206;-6.106;2022-07-26T11:12:21;12.65;;;4.25;;
58685;SDS011;44465;53.206;-6.106;2022-07-26T11:14:47;15.70;;;3.50;;
58685;SDS011;44465;53.206;-6.106;2022-07-26T11:19:49;21.90;;;4.00;;
58685;SDS011;44465;53.206;-6.106;2022-07-26T11:22:15;16.42;;;3.55;;
58685;SDS011;44465;53.206;-6.106;2022-07-26T11:24:40;19.98;;;3.72;;
58685;SDS011;44465;53.206;-6.106;2022-07-26T11:27:06;16.30;;;3.67;;
58685;SDS011;44465;53.206;-6.106;2022-07-26T11:29:32;10.35;;;3.17;;
58685;SDS011;44465;53.206;-6.106;2022-07-26T11:31:59;13.82;;;3.05;;
58685;SDS011;44465;53.206;-6.106;2022-07-26T11:34:27;16.03;;;3.20;;
58685;SDS011;44465;53.206;-6.106;2022-07-26T11:36:54;12.35;;;3.20;;
58685;SDS011;44465;53.206;-6.106;2022-07-26T11:39:29;15.90;;;3.53;;
58685;SDS011;44465;53.206;-6.106;2022-07-26T11:44:26;13.63;;;2.78;;
58685;SDS011;44465;53.206;-6.106;2022-07-26T11:46:52;13.80;;;2.85;;
58685;SDS011;44465;53.206;-6.106;2022-07-26T11:49:19;12.93;;;2.70;;
58685;SDS011;44465;53.206;-6.106;2022-07-26T11:51:57;13.63;;;2.85;;
58685;SDS011;44465;53.206;-6.106;2022-07-26T11:54:25;10.30;;;2.80;;
58685;SDS011;44465;53.206;-6.106;2022-07-26T11:56:56;16.88;;;3.25;;
58685;SDS011;44465;53.206;-6.106;2022-07-26T11:59:24;16.00;;;3.30;;
58685;SDS011;44465;53.206;-6.106;2022-07-26T12:01:52;11.23;;;2.47;;
58685;SDS011;44465;53.206;-6.106;2022-07-26T12:04:22;13.27;;;3.38;;
58685;SDS011;44465;53.206;-6.106;2022-07-26T12:06:53;15.68;;;4.22;;
58685;SDS011;44465;53.206;-6.106;2022-07-26T12:09:29;12.27;;;3.47;;
58685;SDS011;44465;53.206;-6.106;2022-07-26T12:12:00;15.38;;;3.67;;
58685;SDS011;44465;53.206;-6.106;2022-07-26T12:14:31;17.52;;;3.70;;
58685;SDS011;44465;53.206;-6.106;2022-07-26T12:17:14;20.88;;;3.97;;
58685;SDS011;44465;53.206;-6.106;2022-07-26T12:19:41;14.80;;;3.65;;
58685;SDS011;44465;53.206;-6.106;2022-07-26T12:22:12;20.65;;;3.97;;
58685;SDS011;44465;53.206;-6.106;2022-07-26T12:29:50;12.73;;;2.55;;
58685;SDS011;44465;53.206;-6.106;2022-07-26T12:32:19;19.23;;;2.75;;
58685;SDS011;44465;53.206;-6.106;2022-07-26T12:34:58;13.13;;;2.90;;
58685;SDS011;44465;53.206;-6.106;2022-07-26T12:37:35;8.38;;;2.45;;
58685;SDS011;44465;53.206;-6.106;2022-07-26T12:40:08;11.32;;;2.90;;
58685;SDS011;44465;53.206;-6.106;2022-07-26T12:42:36;11.30;;;2.25;;
58685;SDS011;44465;53.206;-6.106;2022-07-26T12:45:04;15.20;;;2.75;;
58685;SDS011;44465;53.206;-6.106;2022-07-26T12:47:33;10.15;;;2.17;;
58685;SDS011;44465;53.206;-6.106;2022-07-26T12:49:59;9.90;;;2.58;;
58685;SDS011;44465;53.206;-6.106;2022-07-26T12:52:27;8.52;;;2.67;;
58685;SDS011;44465;53.206;-6.106;2022-07-26T12:54:53;12.70;;;2.20;;
58685;SDS011;44465;53.206;-6.106;2022-07-26T12:57:18;8.90;;;2.42;;
58685;SDS011;44465;53.206;-6.106;2022-07-26T12:59:44;9.40;;;2.08;;
58685;SDS011;44465;53.206;-6.106;2022-07-26T13:02:10;7.93;;;2.25;;
58685;SDS011;44465;53.206;-6.106;2022-07-26T13:04:36;8.93;;;2.72;;
58685;SDS011;44465;53.206;-6.106;2022-07-26T13:07:02;9.02;;;2.03;;
58685;SDS011;44465;53.206;-6.106;2022-07-26T13:09:28;7.68;;;2.33;;
58685;SDS011;44465;53.206;-6.106;2022-07-26T13:11:54;8.10;;;2.00;;
58685;SDS011;44465;53.206;-6.106;2022-07-26T13:14:20;5.63;;;2.10;;
58685;SDS011;44465;53.206;-6.106;2022-07-26T13:16:46;6.25;;;2.10;;
58685;SDS011;44465;53.206;-6.106;2022-07-26T13:19:12;7.45;;;2.28;;
58685;SDS011;44465;53.206;-6.106;2022-07-26T13:21:37;8.55;;;1.80;;
58685;SDS011;44465;53.206;-6.106;2022-07-26T13:24:03;9.43;;;1.83;;
58685;SDS011;44465;53.206;-6.106;2022-07-26T13:26:28;6.47;;;1.95;;
58685;SDS011;44465;53.206;-6.106;2022-07-26T13:28:54;4.38;;;1.90;;
58685;SDS011;44465;53.206;-6.106;2022-07-26T13:31:19;6.43;;;1.45;;
58685;SDS011;44465;53.206;-6.106;2022-07-26T13:33:45;4.20;;;1.55;;
58685;SDS011;44465;53.206;-6.106;2022-07-26T13:36:10;5.00;;;1.58;;
58685;SDS011;44465;53.206;-6.106;2022-07-26T13:38:36;6.05;;;1.58;;
58685;SDS011;44465;53.206;-6.106;2022-07-26T13:41:01;5.07;;;1.70;;
58685;SDS011;44465;53.206;-6.106;2022-07-26T13:43:28;10.85;;;2.30;;
58685;SDS011;44465;53.206;-6.106;2022-07-26T13:45:55;7.60;;;1.75;;
58685;SDS011;44465;53.206;-6.106;2022-07-26T13:48:21;5.90;;;1.73;;
58685;SDS011;44465;53.206;-6.106;2022-07-26T13:50:47;3.72;;;1.65;;
58685;SDS011;44465;53.206;-6.106;2022-07-26T13:53:13;7.05;;;1.60;;
58685;SDS011;44465;53.206;-6.106;2022-07-26T13:55:39;7.65;;;1.67;;
58685;SDS011;44465;53.206;-6.106;2022-07-26T13:58:05;4.10;;;1.27;;
58685;SDS011;44465;53.206;-6.106;2022-07-26T14:00:30;3.63;;;1.23;;
58685;SDS011;44465;53.206;-6.106;2022-07-26T14:02:57;5.32;;;1.10;;
58685;SDS011;44465;53.206;-6.106;2022-07-26T14:05:23;9.20;;;2.28;;
58685;SDS011;44465;53.206;-6.106;2022-07-26T14:07:48;3.67;;;1.42;;
58685;SDS011;44465;53.206;-6.106;2022-07-26T14:10:14;5.80;;;1.40;;
58685;SDS011;44465;53.206;-6.106;2022-07-26T14:12:40;2.80;;;1.38;;
58685;SDS011;44465;53.206;-6.106;2022-07-26T14:15:06;7.32;;;1.55;;
58685;SDS011;44465;53.206;-6.106;2022-07-26T14:17:33;4.85;;;1.20;;
58685;SDS011;44465;53.206;-6.106;2022-07-26T14:19:59;2.05;;;1.20;;
58685;SDS011;44465;53.206;-6.106;2022-07-26T14:22:25;6.15;;;1.40;;
58685;SDS011;44465;53.206;-6.106;2022-07-26T14:24:50;8.40;;;1.40;;
58685;SDS011;44465;53.206;-6.106;2022-07-26T14:27:16;4.93;;;1.27;;
58685;SDS011;44465;53.206;-6.106;2022-07-26T14:29:41;2.63;;;1.23;;
58685;SDS011;44465;53.206;-6.106;2022-07-26T14:32:10;2.42;;;1.10;;
58685;SDS011;44465;53.206;-6.106;2022-07-26T14:34:39;4.53;;;0.90;;
58685;SDS011;44465;53.206;-6.106;2022-07-26T14:37:04;5.80;;;1.25;;
58685;SDS011;44465;53.206;-6.106;2022-07-26T14:39:30;3.42;;;1.20;;
58685;SDS011;44465;53.206;-6.106;2022-07-26T14:41:57;4.15;;;1.25;;
58685;SDS011;44465;53.206;-6.106;2022-07-26T14:44:24;4.35;;;1.58;;
58685;SDS011;44465;53.206;-6.106;2022-07-26T14:46:50;4.10;;;1.05;;
58685;SDS011;44465;53.206;-6.106;2022-07-26T14:49:17;2.95;;;1.30;;
58685;SDS011;44465;53.206;-6.106;2022-07-26T14:51:42;3.88;;;1.10;;
58685;SDS011;44465;53.206;-6.106;2022-07-26T14:54:08;2.88;;;1.25;;
58685;SDS011;44465;53.206;-6.106;2022-07-26T14:56:33;9.27;;;1.67;;
58685;SDS011;44465;53.206;-6.106;2022-07-26T14:58:59;3.53;;;1.17;;
58685;SDS011;44465;53.206;-6.106;2022-07-26T15:01:24;3.28;;;1.27;;
58685;SDS011;44465;53.206;-6.106;2022-07-26T15:03:50;3.45;;;0.95;;
58685;SDS011;44465;53.206;-6.106;2022-07-26T15:06:16;7.22;;;1.58;;
58685;SDS011;44465;53.206;-6.106;2022-07-26T15:08:41;3.72;;;1.58;;
58685;SDS011;44465;53.206;-6.106;2022-07-26T15:11:07;3.15;;;1.17;;